Time;durP1;ratioP1;P1;durP2;ratioP2;P2;SDS_P1;SDS_P2;PMS_P1;PMS_P2;Temp;Humidity;BMP_temperature;BMP_pressure;BME280_temperature;BME280_humidity;BME280_pressure;Samples;Min_cycle;Max_cycle;Signal;HPM_P1;HPM_P2
2022/04/09 00:00:01;;;;;;;;;;;;;;;4.26;100.00;99524.03;5088522;28;20058;-77
2022/04/09 00:02:26;;;;;;;;;;;;;;;4.26;100.00;99544.88;5093944;28;20256;-77
2022/04/09 00:04:54;;;;;;;;;;;;;;;4.35;100.00;99562.59;5081639;28;19943;-76
2022/04/09 00:07:19;;;;;;;;;;;;;;;4.44;100.00;99595.16;5109573;28;19920;-77
2022/04/09 00:09:45;;;;;;;;;;;;;;;4.46;100.00;99597.81;5104654;28;19930;-77
2022/04/09 00:12:10;;;;;;;;;;;;;;;4.43;100.00;99601.19;5093342;28;19920;-77
2022/04/09 00:14:36;;;;;;;;;;;;;;;4.40;100.00;99600.19;5078185;28;19946;-76
2022/04/09 00:17:02;;;;;;;;;;;;;;;4.31;100.00;99604.16;5089449;28;19927;-76
2022/04/09 00:19:27;;;;;;;;;;;;;;;4.19;100.00;99611.47;5083246;28;19924;-77
2022/04/09 00:21:54;;;;;;;;;;;;;;;4.11;100.00;99610.28;5090592;28;19943;-77
2022/04/09 00:24:21;;;;;;;;;;;;;;;4.07;100.00;99601.44;5058441;28;19924;-77
2022/04/09 00:26:46;;;;;;;;;;;;;;;3.99;100.00;99605.44;5087242;28;19920;-77
2022/04/09 00:29:12;;;;;;;;;;;;;;;3.97;100.00;99603.59;5077190;28;20064;-77
2022/04/09 00:31:37;;;;;;;;;;;;;;;4.01;100.00;99598.59;5094095;28;19973;-77
2022/04/09 00:34:05;;;;;;;;;;;;;;;4.04;100.00;99603.94;5075338;28;19931;-77
2022/04/09 00:36:30;;;;;;;;;;;;;;;3.99;100.00;99595.00;5077025;28;19942;-77
2022/04/09 00:38:55;;;;;;;;;;;;;;;3.89;100.00;99575.50;5097322;28;20387;-77
2022/04/09 00:41:21;;;;;;;;;;;;;;;3.81;100.00;99569.09;5091361;28;19920;-76
2022/04/09 00:43:48;;;;;;;;;;;;;;;3.81;100.00;99553.47;5072839;28;20411;-77
2022/04/09 00:46:14;;;;;;;;;;;;;;;3.90;100.00;99545.13;5087254;28;20014;-77
2022/04/09 00:48:40;;;;;;;;;;;;;;;4.07;100.00;99531.13;5093695;28;20014;-77
2022/04/09 00:51:05;;;;;;;;;;;;;;;4.20;100.00;99535.09;5116769;28;19923;-77
2022/04/09 00:53:36;;;;;;;;;;;;;;;4.28;100.00;99543.22;5081482;28;19920;-77
2022/04/09 00:56:16;;;;;;;;;;;;;;;4.30;100.00;99560.72;5091957;28;19920;-77
2022/04/09 00:58:54;;;;;;;;;;;;;;;4.26;100.00;99578.75;5112020;28;20000;-77
2022/04/09 01:01:20;;;;;;;;;;;;;;;4.27;100.00;99596.16;5079914;28;20015;-77
2022/04/09 01:03:49;;;;;;;;;;;;;;;4.25;100.00;99609.13;5094819;28;19951;-77
2022/04/09 01:06:17;;;;;;;;;;;;;;;4.22;100.00;99619.41;5098748;28;20383;-77
2022/04/09 01:08:42;;;;;;;;;;;;;;;4.21;100.00;99625.47;5087555;28;19938;-77
2022/04/09 01:11:07;;;;;;;;;;;;;;;4.22;100.00;99622.03;5089841;28;20010;-77
2022/04/09 01:13:36;;;;;;;;;;;;;;;4.25;100.00;99640.41;5091728;28;20006;-77
2022/04/09 01:16:01;;;;;;;;;;;;;;;4.28;100.00;99655.28;5103935;28;20340;-77
2022/04/09 01:18:27;;;;;;;;;;;;;;;4.25;100.00;99666.47;5095049;28;19920;-77
2022/04/09 01:20:56;;;;;;;;;;;;;;;4.25;100.00;99678.59;5098994;28;19916;-77
2022/04/09 01:23:24;;;;;;;;;;;;;;;4.22;100.00;99683.69;5081477;28;20356;-77
2022/04/09 01:25:49;;;;;;;;;;;;;;;4.32;100.00;99694.56;5077900;28;19916;-76
2022/04/09 01:28:14;;;;;;;;;;;;;;;4.49;100.00;99710.03;5082104;28;19920;-77
2022/04/09 01:30:40;;;;;;;;;;;;;;;4.58;100.00;99735.59;5077568;28;19927;-77
2022/04/09 01:33:07;;;;;;;;;;;;;;;4.65;100.00;99762.00;5092916;28;20468;-77
2022/04/09 01:35:32;;;;;;;;;;;;;;;4.70;100.00;99785.66;5095169;28;20004;-77
2022/04/09 01:37:57;;;;;;;;;;;;;;;4.37;100.00;99800.75;5111845;28;19950;-77
2022/04/09 01:40:22;;;;;;;;;;;;;;;4.20;100.00;99786.97;5063501;28;19921;-77
2022/04/09 01:42:50;;;;;;;;;;;;;;;4.11;100.00;99772.69;5094461;28;19920;-77
2022/04/09 01:45:16;;;;;;;;;;;;;;;4.05;100.00;99771.53;5058021;28;19916;-77
2022/04/09 01:47:42;;;;;;;;;;;;;;;3.98;100.00;99764.25;5095582;28;19916;-77
2022/04/09 01:50:09;;;;;;;;;;;;;;;3.97;100.00;99754.69;5100530;28;20386;-77
2022/04/09 01:52:34;;;;;;;;;;;;;;;4.05;100.00;99754.19;5097930;28;19923;-77
2022/04/09 01:55:00;;;;;;;;;;;;;;;4.19;100.00;99759.13;5110315;28;19920;-77
2022/04/09 01:57:25;;;;;;;;;;;;;;;4.29;100.00;99783.03;5103976;28;19927;-76
2022/04/09 01:59:51;;;;;;;;;;;;;;;4.30;100.00;99810.91;5083977;28;19921;-76
2022/04/09 02:02:16;;;;;;;;;;;;;;;4.27;100.00;99841.13;5077705;28;19975;-77
2022/04/09 02:04:46;;;;;;;;;;;;;;;4.19;100.00;99856.41;5113030;28;19920;-77
2022/04/09 02:07:12;;;;;;;;;;;;;;;4.18;100.00;99878.09;5083037;28;19927;-77
2022/04/09 02:09:38;;;;;;;;;;;;;;;4.08;100.00;99891.50;5095715;28;19920;-77
2022/04/09 02:12:04;;;;;;;;;;;;;;;4.07;100.00;99903.66;5082802;28;19927;-77
2022/04/09 02:14:31;;;;;;;;;;;;;;;4.06;100.00;99900.97;5088140;28;20631;-77
2022/04/09 02:16:56;;;;;;;;;;;;;;;4.01;100.00;99894.66;5097226;28;19920;-77
2022/04/09 02:19:21;;;;;;;;;;;;;;;4.01;100.00;99894.66;5097672;28;19922;-77
2022/04/09 02:21:47;;;;;;;;;;;;;;;4.00;100.00;99898.09;5057910;28;19924;-77
2022/04/09 02:24:13;;;;;;;;;;;;;;;3.99;100.00;99889.38;5098467;28;20012;-76
2022/04/09 02:26:38;;;;;;;;;;;;;;;3.95;100.00;99885.72;5094043;28;19951;-76
2022/04/09 02:29:04;;;;;;;;;;;;;;;3.90;100.00;99882.03;5079566;28;19958;-77
2022/04/09 02:31:29;;;;;;;;;;;;;;;3.88;100.00;99875.84;5078420;28;19924;-76
2022/04/09 02:33:55;;;;;;;;;;;;;;;3.87;100.00;99865.34;5099561;28;19975;-77
2022/04/09 02:36:22;;;;;;;;;;;;;;;3.81;100.00;99855.56;5077919;28;20412;-77
2022/04/09 02:38:48;;;;;;;;;;;;;;;3.80;100.00;99851.16;5083086;28;19920;-76
2022/04/09 02:41:13;;;;;;;;;;;;;;;3.64;100.00;99846.94;5114061;28;19923;-77
2022/04/09 02:43:40;;;;;;;;;;;;;;;3.63;100.00;99828.63;5095433;28;20340;-76
2022/04/09 02:46:05;;;;;;;;;;;;;;;3.55;100.00;99821.34;5081076;28;19923;-76
2022/04/09 02:48:31;;;;;;;;;;;;;;;3.51;100.00;99806.44;5094905;28;19920;-77
2022/04/09 02:50:56;;;;;;;;;;;;;;;3.47;100.00;99806.22;5082153;28;20371;-76
2022/04/09 02:53:22;;;;;;;;;;;;;;;3.49;100.00;99781.13;5076364;28;19920;-77
2022/04/09 02:55:48;;;;;;;;;;;;;;;3.46;100.00;99781.00;5088439;28;19919;-77
2022/04/09 02:58:13;;;;;;;;;;;;;;;3.37;100.00;99773.63;5094730;28;20394;-77
2022/04/09 03:00:38;;;;;;;;;;;;;;;3.31;100.00;99768.13;5092950;28;19927;-77
2022/04/09 03:03:05;;;;;;;;;;;;;;;3.36;100.00;99767.53;5076287;28;19973;-77
2022/04/09 03:05:31;;;;;;;;;;;;;;;3.40;100.00;99750.34;5085992;28;19927;-76
2022/04/09 03:07:57;;;;;;;;;;;;;;;3.39;100.00;99752.06;5093088;28;19920;-76
2022/04/09 03:10:23;;;;;;;;;;;;;;;3.58;100.00;99748.59;5094931;28;19922;-77
2022/04/09 03:12:48;;;;;;;;;;;;;;;3.72;100.00;99750.97;5082468;28;20078;-76
2022/04/09 03:15:16;;;;;;;;;;;;;;;3.81;100.00;99772.22;5074657;28;19948;-77
2022/04/09 03:17:41;;;;;;;;;;;;;;;3.75;100.00;99800.56;5088452;28;20432;-77
2022/04/09 03:20:07;;;;;;;;;;;;;;;3.68;100.00;99811.50;5114427;28;19915;-76
2022/04/09 03:22:33;;;;;;;;;;;;;;;3.74;100.00;99837.84;5083464;28;19984;-76
2022/04/09 03:25:01;;;;;;;;;;;;;;;3.63;100.00;99847.75;5087158;28;19926;-76
2022/04/09 03:27:26;;;;;;;;;;;;;;;3.63;100.00;99852.06;5096120;28;20006;-76
2022/04/09 03:29:52;;;;;;;;;;;;;;;3.60;100.00;99863.22;5086065;28;20359;-76
2022/04/09 03:32:17;;;;;;;;;;;;;;;3.59;100.00;99870.16;5093759;28;19973;-77
2022/04/09 03:34:50;;;;;;;;;;;;;;;3.69;100.00;99873.19;5106377;28;19955;-77
2022/04/09 03:37:15;;;;;;;;;;;;;;;3.83;100.00;99874.72;5094199;28;19919;-76
2022/04/09 03:39:44;;;;;;;;;;;;;;;3.75;100.00;99881.31;5078768;28;19947;-77
2022/04/09 03:42:09;;;;;;;;;;;;;;;3.80;100.00;99887.59;5113261;28;19926;-78
2022/04/09 03:44:37;;;;;;;;;;;;;;;3.86;100.00;99889.63;5113959;28;20359;-78
2022/04/09 03:47:05;;;;;;;;;;;;;;;3.86;100.00;99908.75;5096436;28;19920;-78
2022/04/09 03:49:31;;;;;;;;;;;;;;;3.82;100.00;99909.41;5091743;28;19964;-77
2022/04/09 03:51:57;;;;;;;;;;;;;;;3.72;100.00;99913.28;5077055;28;20009;-77
2022/04/09 03:54:25;;;;;;;;;;;;;;;3.73;100.00;99909.00;5072087;28;20368;-78
2022/04/09 03:56:51;;;;;;;;;;;;;;;3.89;100.00;99908.00;5086191;28;19939;-77
2022/04/09 03:59:17;;;;;;;;;;;;;;;3.91;100.00;99924.59;5094052;28;19916;-78
2022/04/09 04:01:46;;;;;;;;;;;;;;;3.95;100.00;99929.13;5079202;28;20402;-77
2022/04/09 04:04:12;;;;;;;;;;;;;;;4.11;100.00;99944.66;5072754;28;19921;-77
2022/04/09 04:06:38;;;;;;;;;;;;;;;4.14;100.00;99963.03;5093462;28;19920;-77
2022/04/09 04:09:03;;;;;;;;;;;;;;;4.19;100.00;99970.19;5093017;28;20404;-78
2022/04/09 04:11:28;;;;;;;;;;;;;;;4.22;100.00;99996.41;5073417;28;19944;-78
2022/04/09 04:13:54;;;;;;;;;;;;;;;4.16;100.00;100004.81;5077930;28;19920;-78
2022/04/09 04:16:21;;;;;;;;;;;;;;;4.19;100.00;100017.97;5069609;28;19920;-77
2022/04/09 04:18:46;;;;;;;;;;;;;;;4.21;100.00;100011.16;5077113;28;19920;-77
2022/04/09 04:21:12;;;;;;;;;;;;;;;4.20;100.00;100006.75;5088925;28;19924;-76
2022/04/09 04:23:38;;;;;;;;;;;;;;;4.25;100.00;99988.72;5075640;28;20380;-78
2022/04/09 04:26:03;;;;;;;;;;;;;;;4.35;100.00;99990.97;5092448;28;19912;-77
2022/04/09 04:28:29;;;;;;;;;;;;;;;4.43;100.00;99986.09;5074505;28;19916;-78
2022/04/09 04:30:54;;;;;;;;;;;;;;;4.41;100.00;99995.53;5085437;28;19924;-78
2022/04/09 04:33:20;;;;;;;;;;;;;;;4.34;100.00;99989.16;5085396;28;20318;-77
2022/04/09 04:35:45;;;;;;;;;;;;;;;4.31;100.00;99986.41;5089968;28;19920;-78
2022/04/09 04:38:11;;;;;;;;;;;;;;;4.37;100.00;99988.41;5089057;28;19924;-77
2022/04/09 04:40:36;;;;;;;;;;;;;;;4.42;100.00;99974.75;5091591;28;20010;-78
2022/04/09 04:43:03;;;;;;;;;;;;;;;4.41;100.00;99995.53;5078908;28;20379;-78
2022/04/09 04:45:29;;;;;;;;;;;;;;;4.42;100.00;99997.34;5075688;28;19924;-78
2022/04/09 04:47:55;;;;;;;;;;;;;;;4.40;100.00;100006.81;5084291;28;19925;-77
2022/04/09 04:50:20;;;;;;;;;;;;;;;4.26;100.00;100025.28;5082091;28;19921;-77
2022/04/09 04:52:46;;;;;;;;;;;;;;;4.17;100.00;100022.22;5093575;28;19919;-78
2022/04/09 04:55:11;;;;;;;;;;;;;;;4.20;100.00;100025.00;5087249;28;19976;-77
2022/04/09 04:57:41;;;;;;;;;;;;;;;4.21;100.00;100034.59;5089847;28;19962;-78
2022/04/09 05:00:06;;;;;;;;;;;;;;;4.23;100.00;100039.88;5088106;28;19924;-77
2022/04/09 05:02:32;;;;;;;;;;;;;;;4.22;100.00;100046.78;5106061;28;20288;-77
2022/04/09 05:05:01;;;;;;;;;;;;;;;4.28;100.00;100048.81;5074891;28;19923;-76
2022/04/09 05:07:35;;;;;;;;;;;;;;;4.38;100.00;100057.97;5090956;28;19931;-77
2022/04/09 05:10:03;;;;;;;;;;;;;;;4.45;100.00;100067.88;5089684;28;19920;-78
2022/04/09 05:12:28;;;;;;;;;;;;;;;4.43;100.00;100062.59;5074158;28;19970;-77
2022/04/09 05:14:55;;;;;;;;;;;;;;;4.44;100.00;100064.38;5057237;28;19920;-77
2022/04/09 05:17:21;;;;;;;;;;;;;;;4.41;100.00;100064.25;5079846;28;19919;-77
2022/04/09 05:19:46;;;;;;;;;;;;;;;4.44;100.00;100060.84;5059947;28;19935;-78
2022/04/09 05:22:12;;;;;;;;;;;;;;;4.51;100.00;100049.03;5094228;28;19920;-78
2022/04/09 05:24:38;;;;;;;;;;;;;;;4.56;100.00;100043.19;5113683;28;19916;-78
2022/04/09 05:27:04;;;;;;;;;;;;;;;4.47;100.00;100050.56;5083207;28;20431;-78
2022/04/09 05:29:29;;;;;;;;;;;;;;;4.17;100.00;100027.44;5078907;28;20008;-79
2022/04/09 05:31:54;;;;;;;;;;;;;;;3.91;100.00;100000.13;5059405;28;20384;-79
2022/04/09 05:34:19;;;;;;;;;;;;;;;3.88;100.00;99945.28;5104218;28;20007;-80
2022/04/09 05:36:45;;;;;;;;;;;;;;;3.78;100.00;99925.72;5097227;28;19920;-81
2022/04/09 05:39:11;;;;;;;;;;;;;;;3.38;100.00;99940.25;5089803;28;20006;-82
2022/04/09 05:41:41;;;;;;;;;;;;;;;3.33;100.00;99922.66;5082721;28;19922;-83
2022/04/09 05:44:09;;;;;;;;;;;;;;;3.19;100.00;99924.56;5099018;28;19916;-82
2022/04/09 05:46:36;;;;;;;;;;;;;;;3.04;100.00;99930.72;5083148;28;19974;-82
2022/04/09 05:49:02;;;;;;;;;;;;;;;3.01;100.00;99933.19;5079811;28;20402;-82
2022/04/09 05:51:27;;;;;;;;;;;;;;;2.94;100.00;99928.50;5079248;28;19927;-82
2022/04/09 05:53:56;;;;;;;;;;;;;;;2.98;100.00;99937.34;5095993;28;19927;-82
2022/04/09 05:56:22;;;;;;;;;;;;;;;2.99;100.00;99928.72;5077566;28;19973;-81
2022/04/09 05:58:47;;;;;;;;;;;;;;;3.07;100.00;99921.31;5090577;28;19942;-82
2022/04/09 06:01:12;;;;;;;;;;;;;;;3.09;100.00;99920.56;5096687;28;20481;-82
2022/04/09 06:03:38;;;;;;;;;;;;;;;3.09;100.00;99914.47;5114514;28;19926;-82
2022/04/09 06:06:03;;;;;;;;;;;;;;;3.04;100.00;99916.84;5102008;28;20048;-81
2022/04/09 06:08:30;;;;;;;;;;;;;;;3.03;100.00;99931.56;5087844;28;20264;-82
2022/04/09 06:10:55;;;;;;;;;;;;;;;3.01;100.00;99930.56;5093002;28;19920;-81
2022/04/09 06:13:23;;;;;;;;;;;;;;;3.03;100.00;99933.25;5086593;28;19920;-81
2022/04/09 06:15:48;;;;;;;;;;;;;;;3.01;100.00;99927.09;5105780;28;19920;-81
2022/04/09 06:18:16;;;;;;;;;;;;;;;3.03;100.00;99933.25;5058351;28;20363;-81
2022/04/09 06:20:41;;;;;;;;;;;;;;;3.09;100.00;99932.69;5083035;28;20387;-81
2022/04/09 06:23:07;;;;;;;;;;;;;;;3.12;100.00;99928.53;5085573;28;19920;-79
2022/04/09 06:25:33;;;;;;;;;;;;;;;3.19;100.00;99920.22;5086362;28;19941;-80
2022/04/09 06:27:59;;;;;;;;;;;;;;;3.39;100.00;99913.41;5091094;28;19919;-80
2022/04/09 06:30:25;;;;;;;;;;;;;;;3.58;100.00;99901.31;5080124;28;19977;-80
2022/04/09 06:32:56;;;;;;;;;;;;;;;3.80;100.00;99891.94;5093371;28;19962;-79
2022/04/09 06:35:21;;;;;;;;;;;;;;;4.01;100.00;99886.81;5084536;28;20343;-79
2022/04/09 06:37:47;;;;;;;;;;;;;;;4.19;100.00;99879.88;5079066;28;20011;-80
2022/04/09 06:40:13;;;;;;;;;;;;;;;4.26;100.00;99891.47;5082094;28;19923;-80
2022/04/09 06:42:40;;;;;;;;;;;;;;;4.31;100.00;99898.69;5093321;28;19939;-80
2022/04/09 06:45:08;;;;;;;;;;;;;;;4.39;100.00;99899.03;5082656;28;19951;-79
2022/04/09 06:47:35;;;;;;;;;;;;;;;4.49;100.00;99905.56;5076983;28;19916;-80
2022/04/09 06:50:00;;;;;;;;;;;;;;;4.49;100.00;99905.56;5094100;28;19920;-79
2022/04/09 06:52:25;;;;;;;;;;;;;;;4.50;100.00;99917.75;5093735;28;19999;-79
2022/04/09 06:54:55;;;;;;;;;;;;;;;4.57;100.00;99922.44;5075699;28;19916;-80
2022/04/09 06:57:21;;;;;;;;;;;;;;;4.56;100.00;99920.66;5075995;28;20011;-79
2022/04/09 06:59:46;;;;;;;;;;;;;;;4.64;100.00;99934.91;5075551;28;20352;-79
2022/04/09 07:02:11;;;;;;;;;;;;;;;4.70;100.00;99936.91;5076169;28;20007;-79
2022/04/09 07:04:38;;;;;;;;;;;;;;;4.72;100.00;99947.41;5094117;28;19924;-78
2022/04/09 07:07:03;;;;;;;;;;;;;;;4.75;100.00;99953.66;5074168;28;19912;-79
2022/04/09 07:09:29;;;;;;;;;;;;;;;4.72;100.00;99950.03;5074726;28;19916;-79
2022/04/09 07:11:55;;;;;;;;;;;;;;;4.72;100.00;99960.44;5093625;28;19920;-79
2022/04/09 07:14:20;;;;;;;;;;;;;;;4.80;100.00;99974.72;5093019;28;20058;-78
2022/04/09 07:16:47;;;;;;;;;;;;;;;4.81;100.00;99985.22;5075704;28;19966;-79
2022/04/09 07:19:13;;;;;;;;;;;;;;;4.76;100.00;99988.47;5094324;28;19927;-78
2022/04/09 07:21:38;;;;;;;;;;;;;;;4.78;100.00;99984.22;5091537;28;19920;-79
2022/04/09 07:24:04;;;;;;;;;;;;;;;4.87;100.00;99970.69;5076085;28;20355;-79
2022/04/09 07:26:29;;;;;;;;;;;;;;;4.88;100.00;99986.41;5075849;28;19920;-79
2022/04/09 07:28:55;;;;;;;;;;;;;;;4.93;100.00;99981.41;5076271;28;19973;-79
2022/04/09 07:31:20;;;;;;;;;;;;;;;4.93;100.00;99992.72;5075804;28;20245;-76
2022/04/09 07:33:45;;;;;;;;;;;;;;;4.92;100.00;100018.75;5077103;28;19920;-78
2022/04/09 07:36:11;;;;;;;;;;;;;;;5.23;100.00;100034.06;5075290;28;20016;-79
2022/04/09 07:38:36;;;;;;;;;;;;;;;6.45;100.00;100024.38;5056547;28;19928;-79
2022/04/09 07:41:01;;;;;;;;;;;;;;;7.03;100.00;100063.19;5093348;28;20011;-79
2022/04/09 07:43:26;;;;;;;;;;;;;;;7.44;100.00;100088.28;5095836;28;19973;-79
2022/04/09 07:45:52;;;;;;;;;;;;;;;8.37;100.00;100122.91;5095831;28;19962;-79
2022/04/09 07:48:17;;;;;;;;;;;;;;;9.19;100.00;100207.84;5074583;28;19927;-80
2022/04/09 07:50:42;;;;;;;;;;;;;;;9.91;100.00;100330.06;5076807;28;20333;-80
2022/04/09 07:53:09;;;;;;;;;;;;;;;10.19;100.00;100408.09;5093029;28;19923;-79
2022/04/09 07:55:35;;;;;;;;;;;;;;;9.62;100.00;100458.88;5093596;28;19916;-79
2022/04/09 07:58:01;;;;;;;;;;;;;;;9.03;100.00;100473.47;5093763;28;19922;-79
2022/04/09 08:00:27;;;;;;;;;;;;;;;7.86;100.00;100488.19;5112568;28;19938;-79
2022/04/09 08:02:52;;;;;;;;;;;;;;;7.23;100.00;100478.56;5111648;28;20010;-78
2022/04/09 08:05:18;;;;;;;;;;;;;;;6.85;100.00;100464.66;5094247;28;19915;-78
2022/04/09 08:07:44;;;;;;;;;;;;;;;6.54;100.00;100471.16;5112240;28;20360;-78
2022/04/09 08:10:11;;;;;;;;;;;;;;;6.32;100.00;100468.34;5111097;28;19919;-78
2022/04/09 08:12:37;;;;;;;;;;;;;;;6.73;100.00;100458.91;5112334;28;19916;-78
2022/04/09 08:15:03;;;;;;;;;;;;;;;8.03;100.00;100465.28;5112165;28;20367;-80
2022/04/09 08:17:29;;;;;;;;;;;;;;;8.92;100.00;100487.09;5093541;28;19927;-79
2022/04/09 08:19:55;;;;;;;;;;;;;;;9.01;100.00;100536.44;5093898;28;20287;-80
2022/04/09 08:22:21;;;;;;;;;;;;;;;8.18;100.00;100556.78;5094228;28;19915;-79
2022/04/09 08:24:46;;;;;;;;;;;;;;;7.97;100.00;100538.44;5111671;28;19927;-79
2022/04/09 08:27:11;;;;;;;;;;;;;;;8.01;100.00;100522.00;5111510;28;19916;-79
2022/04/09 08:29:37;;;;;;;;;;;;;;;8.04;100.00;100498.53;5112066;28;19916;-79
2022/04/09 08:32:04;;;;;;;;;;;;;;;7.59;100.00;100495.81;5111584;28;19916;-80
2022/04/09 08:34:32;;;;;;;;;;;;;;;7.35;100.00;100475.59;5094254;28;20363;-79
2022/04/09 08:36:57;;;;;;;;;;;;;;;6.78;100.00;100471.34;5088002;28;19919;-79
2022/04/09 08:39:22;;;;;;;;;;;;;;;6.40;100.00;100487.91;5111510;28;20363;-79
2022/04/09 08:41:49;;;;;;;;;;;;;;;6.28;100.00;100473.44;5093981;28;19965;-75
2022/04/09 08:44:22;;;;;;;;;;;;;;;6.23;100.00;100469.72;5097083;28;20158;-79
2022/04/09 08:46:47;;;;;;;;;;;;;;;6.31;100.00;100450.84;5075939;28;19916;-79
2022/04/09 08:49:13;;;;;;;;;;;;;;;6.44;100.00;100409.66;5078467;28;19920;-80
2022/04/09 08:51:38;;;;;;;;;;;;;;;6.73;100.00;100401.34;5090576;28;20360;-80
2022/04/09 08:54:04;;;;;;;;;;;;;;;7.08;100.00;100373.16;5090942;28;19920;-80
2022/04/09 08:56:31;;;;;;;;;;;;;;;7.42;100.00;100403.41;5095097;28;19924;-80
2022/04/09 08:58:57;;;;;;;;;;;;;;;8.26;100.00;100385.78;5067066;28;19920;-80
2022/04/09 09:01:22;;;;;;;;;;;;;;;8.50;100.00;100440.03;5076490;28;19921;-79
2022/04/09 09:03:50;;;;;;;;;;;;;;;9.48;100.00;100483.81;5107337;28;20073;-80
2022/04/09 09:06:24;;;;;;;;;;;;;;;10.22;100.00;100517.81;5096737;28;19920;-80
2022/04/09 09:08:49;;;;;;;;;;;;;;;10.37;100.00;100570.97;5078361;28;19917;-79
2022/04/09 09:11:19;;;;;;;;;;;;;;;10.73;100.00;100591.41;5079913;28;19928;-80
2022/04/09 09:13:49;;;;;;;;;;;;;;;11.28;100.00;100617.66;5097901;28;20072;-80
2022/04/09 09:16:20;;;;;;;;;;;;;;;11.69;100.00;100641.66;5097523;28;19963;-79
2022/04/09 09:18:49;;;;;;;;;;;;;;;11.49;100.00;100660.44;5097280;28;19926;-80
2022/04/09 09:21:16;;;;;;;;;;;;;;;11.02;100.00;100661.66;5114638;28;19923;-80
2022/04/09 09:23:41;;;;;;;;;;;;;;;10.92;100.00;100655.19;5097507;28;20276;-80
2022/04/09 09:26:06;;;;;;;;;;;;;;;10.64;100.00;100649.03;5096666;28;19915;-79
2022/04/09 09:28:32;;;;;;;;;;;;;;;10.19;100.00;100663.34;5096744;28;20359;-79
2022/04/09 09:30:58;;;;;;;;;;;;;;;9.95;100.00;100623.03;5096818;28;19959;-79
2022/04/09 09:33:24;;;;;;;;;;;;;;;9.39;100.00;100628.03;5097158;28;19920;-79
2022/04/09 09:35:50;;;;;;;;;;;;;;;8.90;100.00;100629.66;5114483;28;19922;-78
2022/04/09 09:38:23;;;;;;;;;;;;;;;9.04;100.00;100622.31;5097196;28;19915;-78
2022/04/09 09:40:50;;;;;;;;;;;;;;;8.49;100.00;100629.81;5115100;28;19951;-79
2022/04/09 09:43:16;;;;;;;;;;;;;;;8.29;100.00;100636.81;5096150;28;19968;-78
2022/04/09 09:45:41;;;;;;;;;;;;;;;8.30;100.00;100624.59;5097148;28;19916;-78
2022/04/09 09:48:18;;;;;;;;;;;;;;;8.28;100.00;100624.53;5096464;28;19937;-78
2022/04/09 09:50:45;;;;;;;;;;;;;;;8.45;100.00;100622.63;5096962;28;19939;-78
2022/04/09 09:53:10;;;;;;;;;;;;;;;8.22;100.00;100626.94;5114424;28;20000;-78
2022/04/09 09:55:43;;;;;;;;;;;;;;;8.60;100.00;100623.25;5096088;28;19970;-79
2022/04/09 09:58:12;;;;;;;;;;;;;;;9.07;100.00;100656.59;5096434;28;19951;-79
2022/04/09 10:00:38;;;;;;;;;;;;;;;9.33;100.00;100682.13;5096570;28;19957;-77
2022/04/09 10:03:05;;;;;;;;;;;;;;;9.37;100.00;100677.91;5095465;28;19911;-78
2022/04/09 10:05:31;;;;;;;;;;;;;;;8.94;100.00;100697.25;5096464;28;20368;-79
2022/04/09 10:07:56;;;;;;;;;;;;;;;9.05;100.00;100677.53;5114284;28;19912;-78
2022/04/09 10:10:24;;;;;;;;;;;;;;;9.12;100.00;100660.28;5113109;28;20345;-78
2022/04/09 10:12:52;;;;;;;;;;;;;;;9.12;100.00;100678.66;5114415;28;19969;-80
2022/04/09 10:15:17;;;;;;;;;;;;;;;8.92;100.00;100680.53;5096296;28;20043;-79
2022/04/09 10:17:43;;;;;;;;;;;;;;;9.13;100.00;100677.84;5114232;28;20003;-79
2022/04/09 10:20:09;;;;;;;;;;;;;;;9.06;100.00;100684.59;5095931;28;20190;-79
2022/04/09 10:22:47;;;;;;;;;;;;;;;8.60;100.00;100694.13;5096399;28;19923;-79
2022/04/09 10:25:18;;;;;;;;;;;;;;;8.78;100.00;100694.00;5095174;28;19984;-78
2022/04/09 10:27:47;;;;;;;;;;;;;;;9.02;100.00;100689.66;5096473;28;19916;-79
2022/04/09 10:30:19;;;;;;;;;;;;;;;9.18;100.00;100693.78;5113988;28;19916;-78
2022/04/09 10:32:51;;;;;;;;;;;;;;;9.18;100.00;100706.91;5095040;28;19984;-80
2022/04/09 10:35:23;;;;;;;;;;;;;;;9.43;100.00;100706.13;5113988;28;19915;-79
2022/04/09 10:38:07;;;;;;;;;;;;;;;9.58;100.00;100721.59;5095117;28;20420;-79
2022/04/09 10:40:35;;;;;;;;;;;;;;;9.04;100.00;100759.78;5113646;28;20235;-79
2022/04/09 10:43:01;;;;;;;;;;;;;;;9.25;100.00;100756.25;5095282;28;20006;-79
2022/04/09 10:45:34;;;;;;;;;;;;;;;9.58;100.00;100764.56;5095203;28;20428;-78
2022/04/09 10:48:14;;;;;;;;;;;;;;;9.59;100.00;100776.88;5095000;28;19916;-78
2022/04/09 10:50:57;;;;;;;;;;;;;;;9.22;100.00;100787.66;5095640;28;19920;-78
2022/04/09 10:53:25;;;;;;;;;;;;;;;9.20;100.00;100811.25;5094806;28;19916;-79
2022/04/09 10:56:11;;;;;;;;;;;;;;;9.44;100.00;100807.81;5094911;28;19916;-79
2022/04/09 10:58:55;;;;;;;;;;;;;;;9.39;100.00;100812.00;5094880;28;20396;-79
2022/04/09 11:01:39;;;;;;;;;;;;;;;9.03;100.00;100783.41;5095307;28;20295;-78
2022/04/09 11:04:24;;;;;;;;;;;;;;;8.89;100.00;100774.94;5113056;28;19919;-78
2022/04/09 11:07:00;;;;;;;;;;;;;;;9.03;100.00;100767.63;5094591;28;19916;-77
2022/04/09 11:09:26;;;;;;;;;;;;;;;9.44;100.00;100758.75;5077955;28;19980;-79
2022/04/09 11:12:02;;;;;;;;;;;;;;;9.59;100.00;100761.09;5094784;28;19916;-78
2022/04/09 11:14:40;;;;;;;;;;;;;;;9.97;100.00;100794.94;5111451;28;20053;-78
2022/04/09 11:17:21;;;;;;;;;;;;;;;9.87;100.00;100784.06;5094863;28;19919;-78
2022/04/09 11:19:48;;;;;;;;;;;;;;;9.70;100.00;100777.28;5112401;28;19949;-79
2022/04/09 11:22:13;;;;;;;;;;;;;;;9.05;100.00;100786.97;5094818;28;19916;-78
2022/04/09 11:24:40;;;;;;;;;;;;;;;8.98;100.00;100767.44;5113001;28;20292;-80
2022/04/09 11:27:06;;;;;;;;;;;;;;;8.73;100.00;100761.19;5112308;28;19915;-79
2022/04/09 11:29:32;;;;;;;;;;;;;;;8.39;100.00;100750.91;5112609;28;19916;-79
2022/04/09 11:31:58;;;;;;;;;;;;;;;8.15;100.00;100746.41;5077500;28;19924;-79
2022/04/09 11:34:25;;;;;;;;;;;;;;;8.14;100.00;100728.88;5093788;28;19973;-79
2022/04/09 11:37:13;;;;;;;;;;;;;;;8.15;100.00;100738.53;5112615;28;19941;-78
2022/04/09 11:39:43;;;;;;;;;;;;;;;8.34;100.00;100748.09;5094795;28;19912;-79
2022/04/09 11:42:09;;;;;;;;;;;;;;;8.23;100.00;100779.13;5093730;28;19916;-78
2022/04/09 11:44:36;;;;;;;;;;;;;;;8.00;100.00;100806.03;5077301;28;19916;-77
2022/04/09 11:47:18;;;;;;;;;;;;;;;8.04;100.00;100790.50;5077427;28;19924;-79
2022/04/09 11:49:48;;;;;;;;;;;;;;;7.94;100.00;100788.31;5093579;28;19920;-79
2022/04/09 11:52:24;;;;;;;;;;;;;;;7.97;100.00;100783.22;5112148;28;19951;-80
2022/04/09 11:54:54;;;;;;;;;;;;;;;8.02;100.00;100783.41;5110748;28;21762;-80
2022/04/09 11:57:20;;;;;;;;;;;;;;;8.04;100.00;100785.25;5077393;28;19920;-79
2022/04/09 11:59:52;;;;;;;;;;;;;;;7.98;100.00;100789.34;5093945;28;20014;-79
2022/04/09 12:02:19;;;;;;;;;;;;;;;8.43;100.00;100787.88;5112411;28;19920;-80
2022/04/09 12:04:45;;;;;;;;;;;;;;;8.35;100.00;100809.34;5093659;28;20010;-80
2022/04/09 12:07:10;;;;;;;;;;;;;;;8.33;100.00;100809.28;5093683;28;20018;-78
2022/04/09 12:09:36;;;;;;;;;;;;;;;8.15;100.00;100822.47;5112177;28;19923;-78
2022/04/09 12:12:01;;;;;;;;;;;;;;;7.96;100.00;100814.59;5111990;28;19916;-78
2022/04/09 12:14:27;;;;;;;;;;;;;;;7.93;100.00;100801.34;5093855;28;19926;-78
2022/04/09 12:16:52;;;;;;;;;;;;;;;7.95;100.00;100813.69;5093584;28;19917;-78
2022/04/09 12:19:27;;;;;;;;;;;;;;;8.21;100.00;100814.00;5093678;28;19916;-78
2022/04/09 12:21:52;;;;;;;;;;;;;;;8.50;100.00;100812.69;5094150;28;19923;-78
2022/04/09 12:24:18;;;;;;;;;;;;;;;8.55;100.00;100823.38;5093322;28;19916;-78
2022/04/09 12:26:45;;;;;;;;;;;;;;;8.49;100.00;100855.50;5077252;28;20391;-78
2022/04/09 12:29:17;;;;;;;;;;;;;;;8.70;100.00;100846.75;5093962;28;19920;-79
2022/04/09 12:31:43;;;;;;;;;;;;;;;8.79;100.00;100873.41;5093611;28;19916;-78
2022/04/09 12:34:09;;;;;;;;;;;;;;;8.80;100.00;100893.59;5113526;28;20037;-77
2022/04/09 12:36:41;;;;;;;;;;;;;;;8.82;100.00;100906.81;5098494;28;19967;-78
2022/04/09 12:39:22;;;;;;;;;;;;;;;8.63;100.00;100913.84;5097381;28;19931;-78